Impacts TAF Board
For situational awareness. Not to be used for flight planning purposes.
IDs:

KMIA - Miami Intl, FL, US

Issued at 1456 UTC 16 Feb 2019
Updated at 1505 UTC 16 Feb 2019
Potential Impact None Slight Moderate High
Time1453Z 16/16Z 16/17Z 16/18Z 16/19Z 16/20Z 16/21Z 16/22Z 16/23Z 17/00Z 17/01Z 17/02Z 17/03Z 17/04Z>>
Type OBS PRVL PRVL PRVL PRVL PRVL PRVL PRVL PRVL PRVL PRVL PRVL PRVL PRVL
VIS 10 >6 >6 >6 >6 >6 >6 >6 >6 >6 >6 >6 >6 >6
CIG 250 -- -- -- -- -- -- -- -- -- -- -- -- --
Cover BKN SCT SCT SCT SCT SCT SCT SCT SCT SCT FEW FEW FEW FEW
FltCat VFR VFR VFR VFR VFR VFR VFR VFR VFR VFR VFR VFR VFR VFR
WX -- -- -- -- -- -- -- -- -- -- -- -- -- --
WDir VRB 200 200 200 200 200 200 200 200 200 VRB VRB VRB VRB
WSpd 0 10 10 10 10 10 10 10 10 10 3 3 3 3
WGst -- -- -- -- -- -- -- -- -- -- -- -- -- --
Raw TAF
KMIA 161456Z 1615/1718 VRB03KT P6SM SCT030 SCT050
  FM161600 20010KT P6SM SCT030
  FM170100 VRB03KT P6SM FEW025
  FM171500 14009KT P6SM SCT025 SCT050


Raw METAR
KMIA 161453Z 00000KT 10SM FEW050 BKN250 23/15 A3001 RMK AO2 SLP162 T02330150 51013
KMIA 161353Z 03003KT 10SM FEW055 OVC250 21/13 A3000 RMK AO2 SLP160 T02110133
KMIA 161253Z 00000KT 10SM BKN050 OVC250 19/14 A2999 RMK AO2 SLP156 T01890139

METAR Board
Radar Display
Forecast Discussion
For situational awareness. Not to be used for flight planning purposes.